Time;durP1;ratioP1;P1;durP2;ratioP2;P2;SDS_P1;SDS_P2;PMS_P1;PMS_P2;Temp;Humidity;BMP_temperature;BMP_pressure;BME280_temperature;BME280_humidity;BME280_pressure;Samples;Min_cycle;Max_cycle;Signal;HPM_P1;HPM_P2
2022/04/12 00:00:00;;;;;;;17.90;9.13;;;;;;;4.41;56.87;100506.59;123312;1098;104267;-78
2022/04/12 00:02:35;;;;;;;19.43;8.43;;;;;;;4.39;57.30;100487.43;123432;1099;104411;-78
2022/04/12 00:05:09;;;;;;;17.85;8.10;;;;;;;4.37;57.43;100489.05;123383;1096;104613;-77
2022/04/12 00:07:41;;;;;;;;;;;;;;;4.35;57.72;100485.44;123457;1096;104252;-77
2022/04/12 00:10:14;;;;;;;18.47;7.77;;;;;;;4.33;57.79;100493.14;123343;1099;104346;-77
2022/04/12 00:12:47;;;;;;;19.00;8.10;;;;;;;4.30;57.43;100486.08;123380;1099;104274;-77
2022/04/12 00:15:19;;;;;;;17.67;8.03;;;;;;;4.28;57.57;100498.05;123390;1098;104427;-78
2022/04/12 00:20:40;;;;;;;16.30;7.40;;;;;;;4.24;56.97;100485.70;123347;1096;104258;-78
2022/04/12 00:23:12;;;;;;;15.70;8.10;;;;;;;4.24;57.63;100477.91;123567;1099;104322;-77
2022/04/12 00:25:45;;;;;;;16.70;7.97;;;;;;;4.21;57.30;100482.92;123345;1099;104348;-78
2022/04/12 00:28:18;;;;;;;19.33;8.43;;;;;;;4.20;57.55;100480.23;123364;1097;104274;-78
2022/04/12 00:30:49;;;;;;;15.53;7.43;;;;;;;4.18;57.79;100479.25;123353;1099;104246;-78
2022/04/12 00:33:21;;;;;;;14.47;6.97;;;;;;;4.16;58.71;100486.95;123380;1097;104223;-78
2022/04/12 00:35:56;;;;;;;16.27;7.83;;;;;;;4.15;57.35;100482.55;123369;1098;104309;-77
2022/04/12 00:38:33;;;;;;;16.97;7.57;;;;;;;4.13;58.10;100484.17;123368;1097;104347;-78
2022/04/12 00:41:05;;;;;;;18.97;7.93;;;;;;;4.13;58.76;100494.55;123357;1099;104245;-78
2022/04/12 00:43:39;;;;;;;18.00;7.80;;;;;;;4.10;58.07;100490.06;123344;1099;104655;-78
2022/04/12 00:46:10;;;;;;;18.50;7.70;;;;;;;4.09;58.87;100487.37;123355;1099;104274;-77
2022/04/12 00:48:43;;;;;;;16.97;7.47;;;;;;;4.07;58.54;100497.66;123409;1099;104368;-78
2022/04/12 00:51:15;;;;;;;16.77;7.43;;;;;;;4.06;58.23;100488.06;123305;1099;104419;-77
2022/04/12 00:53:48;;;;;;;16.87;7.57;;;;;;;4.04;58.45;100491.39;123302;1098;104306;-77
2022/04/12 00:56:20;;;;;;;18.17;7.83;;;;;;;4.04;58.40;100484.48;123307;1099;104322;-78
2022/04/12 00:58:52;;;;;;;16.90;7.37;;;;;;;4.03;58.82;100493.07;123404;1099;104295;-78
2022/04/12 01:01:24;;;;;;;18.83;8.37;;;;;;;4.02;58.50;100488.70;123355;1098;104409;-78
2022/04/12 01:03:56;;;;;;;16.80;8.00;;;;;;;3.99;58.71;100496.30;123354;1099;104345;-78
2022/04/12 01:06:27;;;;;;;15.97;7.27;;;;;;;3.98;58.68;100488.41;123364;1099;104338;-77
2022/04/12 01:08:59;;;;;;;16.13;7.57;;;;;;;3.98;59.82;100496.20;123309;1099;104239;-78
2022/04/12 01:11:30;;;;;;;17.10;7.53;;;;;;;3.95;58.54;100484.80;123347;1099;104396;-77
2022/04/12 01:14:02;;;;;;;15.43;7.13;;;;;;;3.92;58.83;100487.21;123343;1099;104301;-77
2022/04/12 01:16:35;;;;;;;17.90;7.50;;;;;;;3.91;58.82;100488.03;123328;1099;104349;-78
2022/04/12 01:19:07;;;;;;;16.60;7.63;;;;;;;3.89;59.55;100492.21;123367;1099;104511;-77
2022/04/12 01:21:48;;;;;;;15.23;7.10;;;;;;;3.87;58.80;100492.94;123359;1097;104264;-78
2022/04/12 01:24:19;;;;;;;15.77;7.40;;;;;;;3.85;59.51;100482.45;123367;1098;104347;-78
2022/04/12 01:26:51;;;;;;;16.73;7.57;;;;;;;3.85;59.86;100492.84;123364;1099;104708;-78
2022/04/12 01:29:25;;;;;;;16.33;6.73;;;;;;;3.82;60.84;100490.05;123322;1099;104344;-78
2022/04/12 01:31:59;;;;;;;16.93;6.85;;;;;;;3.82;59.70;100482.27;123374;1098;104245;-78
2022/04/12 01:34:31;;;;;;;14.60;6.53;;;;;;;3.80;59.58;100489.04;123368;1099;104332;-77
2022/04/12 01:37:03;;;;;;;17.43;6.70;;;;;;;3.78;59.97;100485.46;123314;1099;104320;-78
2022/04/12 01:39:36;;;;;;;15.53;6.93;;;;;;;3.78;60.34;100486.34;123407;1099;104357;-79
2022/04/12 01:42:09;;;;;;;13.60;6.87;;;;;;;3.75;60.14;100480.97;123399;1099;104383;-77
2022/04/12 01:44:40;;;;;;;16.13;7.27;;;;;;;3.74;60.29;100488.66;123370;1098;104255;-77
2022/04/12 01:47:12;;;;;;;15.70;7.00;;;;;;;3.73;60.88;100492.08;123319;1099;104727;-77
2022/04/12 01:49:43;;;;;;;18.00;7.13;;;;;;;3.70;60.56;100495.36;123308;1099;104380;-77
2022/04/12 01:52:15;;;;;;;16.60;7.13;;;;;;;3.69;60.30;100498.75;123336;1099;104383;-78
2022/04/12 01:54:47;;;;;;;15.15;7.00;;;;;;;3.69;60.01;100484.88;123092;1099;104408;-78
2022/04/12 01:57:20;;;;;;;17.03;6.77;;;;;;;3.68;60.63;100491.78;123353;1099;104342;-77
2022/04/12 01:59:52;;;;;;;16.80;7.13;;;;;;;3.67;60.01;100494.28;123354;1098;104379;-78
2022/04/12 02:02:23;;;;;;;17.67;7.70;;;;;;;3.66;59.70;100501.18;123387;1099;104443;-77
2022/04/12 02:04:56;;;;;;;17.80;7.50;;;;;;;3.64;60.61;100502.76;123352;1099;104428;-77
2022/04/12 02:07:28;;;;;;;16.10;7.20;;;;;;;3.63;60.76;100495.80;123300;1099;104508;-78
2022/04/12 02:10:00;;;;;;;16.40;7.10;;;;;;;3.62;60.67;100498.30;123343;1099;104395;-78
2022/04/12 02:12:32;;;;;;;18.77;7.43;;;;;;;3.59;61.43;100501.58;123118;1099;104747;-78
2022/04/12 02:15:06;;;;;;;17.73;7.43;;;;;;;3.57;62.24;100505.78;123385;1099;104418;-78
2022/04/12 02:17:36;;;;;;;;;;;;;;;3.54;62.20;100496.09;123213;1099;104421;-78
2022/04/12 02:20:08;;;;;;;18.47;7.50;;;;;;;3.54;60.75;100497.80;123310;1099;104352;-78
2022/04/12 02:22:41;;;;;;;15.03;6.87;;;;;;;3.51;62.24;100503.69;123345;1099;104248;-78
2022/04/12 02:25:14;;;;;;;17.47;7.00;;;;;;;3.51;60.88;100492.42;123343;1099;104217;-77
2022/04/12 02:27:47;;;;;;;15.87;6.97;;;;;;;3.49;63.08;100507.89;123382;1099;104316;-78
2022/04/12 02:30:19;;;;;;;14.63;6.85;;;;;;;3.48;62.28;100500.89;123328;1099;104328;-78
2022/04/12 02:32:51;;;;;;;15.80;6.95;;;;;;;3.47;62.32;100511.17;123314;1099;104438;-78
2022/04/12 02:35:24;;;;;;;17.60;7.30;;;;;;;3.46;61.62;100501.58;123404;1099;104357;-77
2022/04/12 02:37:56;;;;;;;16.27;6.80;;;;;;;3.43;62.31;100494.52;123369;1099;104245;-77
2022/04/12 02:40:29;;;;;;;13.97;6.80;;;;;;;3.42;61.50;100495.31;123368;1099;104284;-77
2022/04/12 02:43:02;;;;;;;17.27;6.97;;;;;;;3.42;61.65;100503.09;123390;1099;104473;-78
2022/04/12 02:45:33;;;;;;;18.30;6.90;;;;;;;3.40;61.89;100502.11;123318;1099;104281;-77
2022/04/12 02:48:08;;;;;;;17.03;7.20;;;;;;;3.39;62.81;100505.49;123339;1098;104238;-77
2022/04/12 02:50:42;;;;;;;17.53;7.37;;;;;;;3.36;61.95;100500.99;123425;1099;104245;-78
2022/04/12 02:53:13;;;;;;;19.87;7.90;;;;;;;3.35;61.59;100501.81;123410;1099;105617;-77
2022/04/12 02:55:47;;;;;;;15.77;7.50;;;;;;;3.34;62.25;100505.19;123387;1099;104725;-78
2022/04/12 02:58:20;;;;;;;19.82;7.50;;;;;;;3.32;62.99;100511.06;123389;1099;104268;-78
2022/04/12 03:00:53;;;;;;;17.15;7.75;;;;;;;3.30;62.85;100495.41;123356;1099;104316;-78
2022/04/12 03:03:25;;;;;;;15.32;6.75;;;;;;;3.28;62.92;100511.69;123364;1099;104338;-78
2022/04/12 03:05:56;;;;;;;21.47;7.53;;;;;;;3.26;62.93;100510.67;123356;1099;104338;-78
2022/04/12 03:08:30;;;;;;;16.73;7.17;;;;;;;3.25;62.85;100514.97;123366;1098;104833;-77
2022/04/12 03:11:03;;;;;;;17.10;7.23;;;;;;;3.23;63.49;100503.61;123374;1099;104271;-78
2022/04/12 03:13:34;;;;;;;16.30;7.47;;;;;;;3.21;63.74;100516.47;123377;1099;104659;-77
2022/04/12 03:16:07;;;;;;;17.47;6.90;;;;;;;3.20;63.38;100517.27;123376;1098;104275;-78
2022/04/12 03:18:38;;;;;;;18.43;7.37;;;;;;;3.19;63.42;100517.16;123398;1099;104312;-78
2022/04/12 03:21:11;;;;;;;14.57;6.87;;;;;;;3.17;63.96;100518.77;123380;1097;104437;-78
2022/04/12 03:23:43;;;;;;;18.67;7.20;;;;;;;3.15;63.72;100516.08;123345;1099;104248;-77
2022/04/12 03:26:16;;;;;;;17.23;7.53;;;;;;;3.14;63.86;100518.56;123441;1099;104325;-77
2022/04/12 03:28:48;;;;;;;22.13;8.00;;;;;;;3.14;64.04;100521.16;123435;1099;104261;-78
2022/04/12 03:31:21;;;;;;;19.60;7.30;;;;;;;3.11;63.75;100532.21;123399;1099;104256;-77
2022/04/12 03:33:53;;;;;;;18.83;7.80;;;;;;;3.11;63.81;100515.77;123293;1098;104373;-78
2022/04/12 03:36:26;;;;;;;17.40;7.97;;;;;;;3.11;64.47;100531.33;123316;1098;104338;-77
2022/04/12 03:38:57;;;;;;;18.43;7.50;;;;;;;3.10;64.92;100526.92;123359;1099;104335;-78
2022/04/12 03:41:31;;;;;;;18.27;6.90;;;;;;;3.10;65.01;100540.81;123356;1098;104265;-78
2022/04/12 03:44:03;;;;;;;19.07;8.05;;;;;;;3.12;64.22;100526.24;123357;1099;104374;-78
2022/04/12 03:46:35;;;;;;;19.17;7.50;;;;;;;3.14;63.86;100535.01;123517;1097;104326;-76
2022/04/12 03:49:07;;;;;;;19.63;7.47;;;;;;;3.16;64.16;100533.41;123576;1099;104238;-76
2022/04/12 03:51:40;;;;;;;16.10;7.30;;;;;;;3.18;64.92;100534.42;123627;1099;104303;-76
2022/04/12 03:54:13;;;;;;;14.93;7.28;;;;;;;3.21;64.65;100542.41;123660;1099;104344;-76
2022/04/12 03:56:45;;;;;;;20.83;8.00;;;;;;;3.27;64.72;100548.78;123576;1099;104226;-77
2022/04/12 03:59:17;;;;;;;17.53;7.77;;;;;;;3.32;64.58;100544.78;123612;1098;104360;-78
2022/04/12 04:01:49;;;;;;;18.33;7.77;;;;;;;3.33;63.92;100549.19;123531;1098;104306;-77
2022/04/12 04:04:22;;;;;;;18.50;7.43;;;;;;;3.35;64.95;100543.31;124007;1099;105639;-77
2022/04/12 04:06:57;;;;;;;17.83;7.33;;;;;;;3.39;64.52;100544.40;123718;1099;104287;-77
2022/04/12 04:09:29;;;;;;;19.53;8.07;;;;;;;3.41;64.15;100543.72;123561;1098;104264;-77
2022/04/12 04:12:03;;;;;;;19.73;7.70;;;;;;;3.45;64.43;100551.70;123411;1099;104389;-76
2022/04/12 04:14:35;;;;;;;17.43;7.47;;;;;;;3.47;64.10;100543.19;123452;1099;104370;-77
2022/04/12 04:17:07;;;;;;;21.00;7.73;;;;;;;3.52;63.91;100548.67;123636;1099;104274;-76
2022/04/12 04:19:38;;;;;;;21.13;7.90;;;;;;;3.55;64.23;100569.63;123419;1099;104265;-77
2022/04/12 04:22:10;;;;;;;18.03;7.37;;;;;;;3.57;64.05;100549.89;123353;1098;104354;-76
2022/04/12 04:24:41;;;;;;;15.73;7.43;;;;;;;3.62;64.43;100555.37;123334;1099;104335;-77
2022/04/12 04:27:13;;;;;;;19.73;7.60;;;;;;;3.65;64.32;100548.68;123361;1097;104315;-76
2022/04/12 04:29:44;;;;;;;19.60;7.50;;;;;;;3.68;64.04;100541.09;123451;1099;104284;-76
2022/04/12 04:32:18;;;;;;;19.43;7.47;;;;;;;3.73;64.27;100562.15;123418;1099;104284;-77
2022/04/12 04:34:50;;;;;;;19.30;7.72;;;;;;;3.75;64.02;100551.05;123382;1099;104425;-78
2022/04/12 04:37:22;;;;;;;17.33;7.73;;;;;;;3.80;63.90;100555.64;123342;1099;104756;-76
2022/04/12 04:39:54;;;;;;;19.03;8.07;;;;;;;3.86;64.13;100569.90;123395;1098;104316;-75
2022/04/12 04:42:27;;;;;;;21.07;7.87;;;;;;;3.90;63.77;100569.30;123595;1099;104294;-74
2022/04/12 04:44:59;;;;;;;19.13;7.67;;;;;;;3.95;64.35;100569.59;123447;1099;104361;-75
2022/04/12 04:47:30;;;;;;;17.75;7.35;;;;;;;4.01;64.11;100567.39;123333;1099;104338;-77
2022/04/12 04:50:02;;;;;;;15.15;7.10;;;;;;;4.07;64.11;100569.48;123451;1099;104380;-75
2022/04/12 04:52:34;;;;;;;19.07;8.00;;;;;;;4.10;64.02;100567.08;123641;1099;104267;-75
2022/04/12 04:55:07;;;;;;;18.47;7.43;;;;;;;4.14;63.83;100567.38;123498;1099;104278;-77
2022/04/12 04:57:41;;;;;;;19.27;8.30;;;;;;;4.20;63.97;100564.23;123565;1098;104220;-76
2022/04/12 05:00:16;;;;;;;19.50;7.53;;;;;;;4.24;63.31;100571.42;123563;1099;104319;-76
2022/04/12 05:02:51;;;;;;;18.17;7.80;;;;;;;4.30;63.52;100571.81;123485;1097;104348;-76
2022/04/12 05:05:23;;;;;;;18.20;7.75;;;;;;;4.35;63.39;100573.77;123381;1099;104293;-77
2022/04/12 05:07:56;;;;;;;20.47;8.37;;;;;;;4.42;62.92;100568.16;123580;1099;104265;-76
2022/04/12 05:10:30;;;;;;;19.47;7.83;;;;;;;4.49;63.78;100572.94;123630;1097;104267;-77
2022/04/12 05:13:03;;;;;;;16.83;7.60;;;;;;;4.56;63.47;100569.89;123617;1099;104339;-76
2022/04/12 05:15:44;;;;;;;20.27;8.00;;;;;;;4.59;63.25;100587.39;123513;1098;104380;-76
2022/04/12 05:18:15;;;;;;;21.45;8.20;;;;;;;4.61;62.95;100573.69;123344;1099;104238;-76
2022/04/12 05:20:49;;;;;;;15.67;7.20;;;;;;;4.66;62.83;100577.45;123722;1098;104265;-76
2022/04/12 05:23:22;;;;;;;17.93;8.13;;;;;;;4.72;63.45;100571.75;123689;1099;104264;-77
2022/04/12 05:25:54;;;;;;;18.63;7.57;;;;;;;4.77;62.90;100567.70;123756;1099;104203;-78
2022/04/12 05:28:26;;;;;;;18.77;7.73;;;;;;;4.85;63.31;100575.97;123673;1097;104282;-74
2022/04/12 05:30:58;;;;;;;18.90;8.30;;;;;;;4.93;62.84;100568.63;123439;1099;104310;-77
2022/04/12 05:33:31;;;;;;;17.83;7.33;;;;;;;4.98;62.31;100567.18;123604;1097;104341;-76
2022/04/12 05:36:03;;;;;;;19.85;8.20;;;;;;;5.04;62.44;100568.43;123533;1099;104279;-75
2022/04/12 05:38:56;;;;;;;17.60;7.07;;;;;;;5.12;62.38;100568.88;123672;1097;104261;-75
2022/04/12 05:41:28;;;;;;;16.52;7.53;;;;;;;5.20;62.30;100570.25;123516;1098;104718;-75
2022/04/12 05:44:00;;;;;;;16.87;7.63;;;;;;;5.28;62.16;100572.38;123705;1099;104351;-75
2022/04/12 05:46:32;;;;;;;19.27;8.27;;;;;;;5.35;62.32;100575.43;123885;1097;104270;-75
2022/04/12 05:49:04;;;;;;;18.17;7.73;;;;;;;5.46;62.43;100569.95;123693;1098;104323;-77
2022/04/12 05:51:35;;;;;;;15.63;7.53;;;;;;;5.52;61.57;100572.91;123743;1098;104434;-77
2022/04/12 05:54:08;;;;;;;19.90;8.20;;;;;;;5.60;61.57;100583.77;123855;1097;104338;-76
2022/04/12 05:56:42;;;;;;;18.90;7.30;;;;;;;5.67;61.66;100584.20;123952;1099;105452;-77
2022/04/12 05:59:14;;;;;;;18.00;7.40;;;;;;;5.69;61.02;100592.98;123782;1099;104737;-75
2022/04/12 06:01:48;;;;;;;22.20;7.90;;;;;;;5.72;61.00;100574.93;123815;1099;104239;-76
2022/04/12 06:04:22;;;;;;;17.60;7.17;;;;;;;5.78;60.19;100578.68;123573;1099;104389;-77
2022/04/12 06:06:57;;;;;;;16.70;7.57;;;;;;;5.89;61.00;100570.67;123467;1099;104242;-78
2022/04/12 06:09:29;;;;;;;19.40;7.80;;;;;;;5.99;60.64;100574.70;123451;1099;104434;-79
2022/04/12 06:12:02;;;;;;;17.47;7.77;;;;;;;6.07;60.80;100576.02;124089;1099;104271;-77
2022/04/12 06:14:35;;;;;;;16.93;7.73;;;;;;;6.19;60.81;100573.19;123696;1099;104472;-77
2022/04/12 06:17:11;;;;;;;16.07;7.27;;;;;;;6.29;60.71;100567.67;123538;1099;104456;-78
2022/04/12 06:19:51;;;;;;;16.63;6.87;;;;;;;6.36;59.87;100578.41;123598;1102;104501;-78
2022/04/12 06:22:22;;;;;;;18.60;7.63;;;;;;;6.41;60.36;100575.23;123642;1102;104527;-78
2022/04/12 06:25:00;;;;;;;22.10;8.53;;;;;;;6.46;59.11;100573.77;123647;1099;104309;-78
2022/04/12 06:27:36;;;;;;;18.47;7.30;;;;;;;6.55;60.05;100583.80;124143;1099;104405;-79
2022/04/12 06:30:14;;;;;;;16.33;6.77;;;;;;;6.65;59.12;100590.39;124565;1099;104271;-80
2022/04/12 06:32:48;;;;;;;17.63;7.00;;;;;;;6.69;58.96;100581.92;124094;1099;104472;-78
2022/04/12 06:35:18;;;;;;;;;;;;;;;6.77;57.18;100577.99;123719;1099;104345;-78
2022/04/12 06:37:53;;;;;;;16.30;6.63;;;;;;;6.86;57.98;100587.11;123636;1099;104302;-79
2022/04/12 06:40:26;;;;;;;14.30;6.30;;;;;;;6.91;57.49;100583.05;123747;1099;104239;-78
2022/04/12 06:43:03;;;;;;;19.87;7.27;;;;;;;6.97;57.15;100580.75;124136;1099;104253;-78
2022/04/12 06:45:38;;;;;;;17.60;7.20;;;;;;;7.05;57.78;100586.37;123463;1099;104349;-77
2022/04/12 06:48:11;;;;;;;18.37;6.67;;;;;;;7.14;57.45;100587.72;123713;1099;104261;-76
2022/04/12 06:50:43;;;;;;;16.97;6.20;;;;;;;7.24;57.29;100596.02;123864;1099;104444;-77
2022/04/12 06:53:28;;;;;;;15.67;6.07;;;;;;;7.27;55.99;100606.61;123439;1099;104406;-79
2022/04/12 06:56:11;;;;;;;15.23;6.17;;;;;;;7.32;56.25;100607.73;123962;1098;104245;-77
2022/04/12 06:58:48;;;;;;;18.83;6.30;;;;;;;7.41;56.95;100587.31;123854;1102;104358;-78
2022/04/12 07:01:26;;;;;;;14.30;5.93;;;;;;;7.56;56.60;100595.91;124075;1102;104255;-78
2022/04/12 07:04:17;;;;;;;15.73;6.20;;;;;;;7.67;55.20;100595.55;123333;1102;104454;-77
2022/04/12 07:06:51;;;;;;;;;;;;;;;7.77;55.63;100587.32;123227;1098;104329;-78
2022/04/12 07:09:41;;;;;;;16.57;6.03;;;;;;;7.96;56.13;100594.31;123810;1098;104217;-79
2022/04/12 07:12:14;;;;;;;14.73;5.90;;;;;;;8.15;55.39;100582.12;123865;1099;104344;-77
2022/04/12 07:14:47;;;;;;;14.87;6.17;;;;;;;8.30;55.14;100588.06;124383;1099;104666;-79
2022/04/12 07:17:34;;;;;;;;;;;;;;;;;;;;;
2022/04/12 07:20:20;;;;;;;16.90;6.40;;;;;;;8.63;54.84;100575.67;123742;1102;104402;-79
2022/04/12 07:22:52;;;;;;;15.80;5.73;;;;;;;8.75;53.95;100588.39;124080;1099;104970;-78
2022/04/12 07:25:37;;;;;;;14.93;5.67;;;;;;;8.80;54.36;100583.36;123633;1099;104665;-79
2022/04/12 07:28:14;;;;;;;14.80;6.53;;;;;;;8.98;53.93;100573.70;124213;1099;104382;-78
2022/04/12 07:30:46;;;;;;;14.20;5.93;;;;;;;9.06;51.83;100600.20;124540;1097;104242;-77
2022/04/12 07:33:19;;;;;;;17.00;6.37;;;;;;;9.07;52.29;100583.68;124321;1098;104328;-77
2022/04/12 07:35:55;;;;;;;16.13;5.77;;;;;;;9.22;51.42;100572.95;124152;1099;104300;-79
2022/04/12 07:38:28;;;;;;;16.87;5.77;;;;;;;9.31;51.33;100568.10;124552;1099;104642;-78
2022/04/12 07:41:04;;;;;;;14.93;5.40;;;;;;;9.40;51.21;100582.44;124232;1099;104230;-78
2022/04/12 07:43:44;;;;;;;15.43;5.60;;;;;;;9.53;51.10;100585.59;124012;1099;104251;-78
2022/04/12 07:46:26;;;;;;;11.53;4.90;;;;;;;9.62;49.35;100594.69;124012;1098;104361;-77
2022/04/12 07:49:02;;;;;;;13.80;4.67;;;;;;;9.76;49.64;100598.75;123762;1099;104364;-78
2022/04/12 07:51:37;;;;;;;11.60;5.10;;;;;;;9.81;49.28;100598.94;124207;1099;104348;-78
2022/04/12 07:54:09;;;;;;;12.10;5.20;;;;;;;9.88;49.66;100580.90;124449;1099;104325;-79
2022/04/12 07:56:45;;;;;;;12.17;5.07;;;;;;;9.97;49.59;100577.77;124516;1098;104258;-77
2022/04/12 07:59:22;;;;;;;17.23;5.00;;;;;;;10.15;48.21;100577.56;124590;1099;104239;-79
2022/04/12 08:01:57;;;;;;;13.03;4.90;;;;;;;10.22;48.86;100566.48;124875;1099;104251;-76
2022/04/12 08:04:41;;;;;;;10.00;4.72;;;;;;;10.28;48.60;100572.80;124533;1099;104296;-78
2022/04/12 08:07:17;;;;;;;11.40;4.77;;;;;;;10.24;47.25;100588.41;124568;1099;104258;-76
2022/04/12 08:09:52;;;;;;;11.60;4.67;;;;;;;10.20;47.60;100591.73;124214;1099;104165;-77
2022/04/12 08:12:27;;;;;;;;;;;;;;;10.22;45.94;100583.93;123963;1099;104207;-78
2022/04/12 08:15:02;;;;;;;11.90;5.00;;;;;;;10.28;45.70;100571.05;124524;1099;104287;-76
2022/04/12 08:17:38;;;;;;;10.73;4.17;;;;;;;10.34;43.56;100565.19;123967;1099;104401;-78
2022/04/12 08:20:20;;;;;;;10.37;4.00;;;;;;;10.48;43.19;100571.84;124067;1097;104175;-79
2022/04/12 08:22:58;;;;;;;10.30;4.03;;;;;;;10.64;44.08;100560.17;123926;1099;104271;-78
2022/04/12 08:25:33;;;;;;;11.67;4.30;;;;;;;10.85;43.65;100552.19;123516;1098;104342;-77
2022/04/12 08:28:09;;;;;;;11.00;4.20;;;;;;;10.92;45.05;100553.28;123669;1099;104333;-78
2022/04/12 08:30:50;;;;;;;11.67;4.37;;;;;;;11.02;44.22;100575.53;123858;1099;104348;-77
2022/04/12 08:33:23;;;;;;;8.40;3.80;;;;;;;11.14;41.58;100560.16;123942;1098;104217;-77
2022/04/12 08:35:55;;;;;;;11.12;3.58;;;;;;;11.30;43.01;100556.34;123776;1099;104258;-78
2022/04/12 08:38:35;;;;;;;11.27;3.27;;;;;;;11.23;42.34;100555.23;123560;1099;104754;-77
2022/04/12 08:41:10;;;;;;;9.30;3.73;;;;;;;11.00;42.64;100551.84;123754;1099;104268;-77
2022/04/12 08:43:45;;;;;;;8.43;3.23;;;;;;;10.74;39.18;100570.17;123829;1099;104150;-77
2022/04/12 08:46:30;;;;;;;7.73;3.27;;;;;;;10.81;39.42;100576.53;123985;1098;104473;-77
2022/04/12 08:49:07;;;;;;;12.73;3.33;;;;;;;10.75;40.47;100557.94;124110;1097;104620;-78
2022/04/12 08:51:58;;;;;;;9.97;3.80;;;;;;;10.87;40.25;100555.74;123848;1098;110793;-77
2022/04/12 08:54:32;;;;;;;6.95;3.55;;;;;;;10.89;41.41;100548.84;123650;1099;104338;-77
2022/04/12 08:57:13;;;;;;;9.30;4.03;;;;;;;10.89;42.24;100540.05;124143;1099;104821;-78
2022/04/12 09:00:00;;;;;;;13.63;3.43;;;;;;;10.81;40.20;100562.52;123741;1099;104296;-78
2022/04/12 09:02:41;;;;;;;7.90;3.60;;;;;;;10.78;41.61;100547.55;123705;1099;104373;-76
2022/04/12 09:05:41;;;;;;;9.87;3.37;;;;;;;10.58;39.89;100550.36;123714;1099;104364;-80
2022/04/12 09:08:30;;;;;;;9.53;3.47;;;;;;;10.50;40.64;100553.53;124183;1099;104351;-77
2022/04/12 09:11:07;;;;;;;9.43;3.70;;;;;;;10.38;40.92;100549.63;123734;1099;104338;-79
2022/04/12 09:13:40;;;;;;;7.77;3.37;;;;;;;10.21;40.84;100553.31;123898;1099;104307;-76
2022/04/12 09:16:12;;;;;;;10.55;3.52;;;;;;;10.09;40.80;100548.48;123894;1099;104219;-77
2022/04/12 09:18:51;;;;;;;12.70;4.00;;;;;;;10.10;41.46;100546.75;124029;1099;104204;-78
2022/04/12 09:21:33;;;;;;;10.67;3.93;;;;;;;10.33;41.34;100545.03;124404;1099;104258;-79
2022/04/12 09:24:08;;;;;;;8.73;3.43;;;;;;;10.63;40.15;100550.53;124833;1099;104678;-79
2022/04/12 09:26:40;;;;;;;10.93;3.83;;;;;;;10.75;40.75;100535.23;124153;1099;104261;-78
2022/04/12 09:29:15;;;;;;;12.47;3.27;;;;;;;10.79;41.08;100551.97;124707;1099;104236;-77
2022/04/12 09:31:55;;;;;;;8.70;3.53;;;;;;;10.97;40.10;100538.61;124800;1099;104290;-78
2022/04/12 09:34:29;;;;;;;8.37;3.37;;;;;;;11.00;39.25;100545.67;124706;1099;104415;-79
2022/04/12 09:37:02;;;;;;;12.43;3.60;;;;;;;10.91;40.44;100528.77;125122;1099;104235;-79
2022/04/12 09:39:38;;;;;;;6.93;3.27;;;;;;;10.81;39.72;100538.89;125021;1099;104316;-78
2022/04/12 09:42:14;;;;;;;10.43;3.57;;;;;;;10.78;40.48;100542.30;125159;1099;104259;-79
2022/04/12 09:45:02;;;;;;;10.87;3.67;;;;;;;10.95;40.35;100558.64;124767;1099;104258;-78
2022/04/12 09:47:37;;;;;;;7.77;3.20;;;;;;;10.93;39.18;100547.20;124917;1099;104344;-78
2022/04/12 09:50:14;;;;;;;11.73;3.50;;;;;;;10.94;38.61;100538.50;125163;1098;104217;-78
2022/04/12 09:53:02;;;;;;;8.50;3.00;;;;;;;11.10;37.28;100559.17;124610;1099;106851;-77
2022/04/12 09:55:46;;;;;;;6.87;2.80;;;;;;;11.27;38.09;100540.48;124559;1097;104718;-78
2022/04/12 09:58:22;;;;;;;8.95;3.20;;;;;;;11.40;37.51;100547.91;124540;1099;104213;-77
2022/04/12 10:01:00;;;;;;;11.63;3.70;;;;;;;11.28;38.47;100552.76;124378;1099;104742;-76
2022/04/12 10:03:45;;;;;;;12.80;3.20;;;;;;;11.04;37.99;100558.08;124168;1099;117844;-79
2022/04/12 10:06:26;;;;;;;10.73;3.07;;;;;;;10.79;37.88;100551.97;125361;1099;104853;-79
2022/04/12 10:09:07;;;;;;;8.13;3.03;;;;;;;10.79;36.43;100552.84;125324;1099;104233;-76
2022/04/12 10:11:45;;;;;;;10.00;3.20;;;;;;;11.02;36.86;100546.64;125026;1097;104242;-78
2022/04/12 10:14:19;;;;;;;9.15;3.00;;;;;;;11.14;36.92;100547.03;125178;1099;104383;-77
2022/04/12 10:16:55;;;;;;;9.23;3.17;;;;;;;11.26;36.82;100549.20;124648;1099;104220;-77
2022/04/12 10:19:28;;;;;;;10.73;3.20;;;;;;;11.20;37.07;100556.87;124287;1099;104424;-77
2022/04/12 10:22:02;;;;;;;6.30;2.97;;;;;;;11.10;37.71;100532.92;124300;1099;104341;-77
2022/04/12 10:24:36;;;;;;;9.07;3.53;;;;;;;11.06;37.21;100546.77;124413;1099;104254;-77
2022/04/12 10:27:08;;;;;;;10.53;3.37;;;;;;;11.00;37.13;100535.17;124303;1099;104278;-76
2022/04/12 10:30:01;;;;;;;8.10;3.00;;;;;;;10.94;36.61;100554.25;124458;1099;104230;-78
2022/04/12 10:32:37;;;;;;;10.60;3.33;;;;;;;11.02;36.88;100552.78;124457;1099;104399;-77
2022/04/12 10:35:15;;;;;;;6.80;2.97;;;;;;;10.95;37.11;100553.39;124043;1099;104157;-78
2022/04/12 10:37:51;;;;;;;7.90;2.97;;;;;;;10.92;37.51;100545.41;124635;1099;104255;-78
2022/04/12 10:40:29;;;;;;;7.47;2.90;;;;;;;10.84;36.86;100554.75;125192;1097;102234;-78
2022/04/12 10:43:05;;;;;;;7.37;3.10;;;;;;;10.71;36.89;100546.44;125249;1098;102505;-78
2022/04/12 10:48:38;;;;;;;9.90;3.43;;;;;;;10.52;36.74;100557.12;124650;1099;104229;-77
2022/04/12 10:51:15;;;;;;;9.17;3.13;;;;;;;10.41;36.62;100536.63;124633;1099;104332;-78
2022/04/12 10:54:24;;;;;;;6.65;3.00;;;;;;;10.31;36.66;100570.28;124596;1099;102754;-76
2022/04/12 10:57:26;;;;;;;8.03;2.87;;;;;;;10.26;37.02;100563.13;123694;1098;104291;-79
2022/04/12 11:00:14;;;;;;;11.20;3.20;;;;;;;10.35;37.12;100564.37;124247;1099;104364;-76
2022/04/12 11:02:52;;;;;;;6.70;3.00;;;;;;;10.40;37.22;100557.55;123870;1099;104287;-76
2022/04/12 11:06:07;;;;;;;8.40;2.97;;;;;;;10.41;36.85;100565.48;123877;1099;104338;-75
2022/04/12 11:08:58;;;;;;;5.70;2.97;;;;;;;10.41;37.01;100567.22;123725;1098;104517;-77
2022/04/12 11:11:52;;;;;;;10.20;3.40;;;;;;;10.48;36.86;100555.22;123562;1099;104411;-76
2022/04/12 11:14:36;;;;;;;8.67;3.20;;;;;;;10.60;37.30;100572.30;123539;1098;104537;-76
2022/04/12 11:17:32;;;;;;;;;;;;;;;;;;;;;
2022/04/12 11:20:35;;;;;;;8.97;3.40;;;;;;;10.91;37.35;100569.89;123595;1099;104421;-79
2022/04/12 11:23:11;;;;;;;6.97;3.20;;;;;;;11.07;36.66;100587.08;124196;1099;105530;-77
2022/04/12 11:26:00;;;;;;;8.73;3.30;;;;;;;11.14;36.06;100565.41;123722;1099;104418;-78
2022/04/12 11:28:42;;;;;;;9.20;2.95;;;;;;;11.17;36.96;100572.52;123875;1099;104421;-77
2022/04/12 11:31:15;;;;;;;9.88;2.98;;;;;;;11.04;35.70;100565.96;123631;1099;104425;-79
2022/04/12 11:33:50;;;;;;;10.90;3.47;;;;;;;10.89;35.80;100566.30;124244;1099;104319;-78
2022/04/12 11:36:25;;;;;;;7.47;3.40;;;;;;;10.76;35.60;100564.98;124220;1099;104344;-78
2022/04/12 11:39:03;;;;;;;9.90;3.27;;;;;;;10.67;36.25;100568.16;124684;1099;104245;-80
2022/04/12 11:41:39;;;;;;;8.73;3.33;;;;;;;10.64;35.48;100575.03;123695;1099;104312;-76
2022/04/12 11:44:14;;;;;;;5.60;2.83;;;;;;;10.61;36.30;100567.92;124034;1097;104319;-78
2022/04/12 11:46:46;;;;;;;11.50;3.20;;;;;;;10.59;36.79;100565.25;123791;1098;104379;-77
2022/04/12 11:49:31;;;;;;;4.57;3.03;;;;;;;10.56;36.49;100574.75;123859;1099;104251;-79
2022/04/12 11:52:16;;;;;;;7.20;3.20;;;;;;;10.49;36.28;100557.02;123981;1099;104469;-78
2022/04/12 11:55:02;;;;;;;12.43;3.33;;;;;;;10.56;36.17;100572.13;123939;1099;104409;-79